Time;durP1;ratioP1;P1;durP2;ratioP2;P2;SDS_P1;SDS_P2;PMS_P1;PMS_P2;Temp;Humidity;BMP_temperature;BMP_pressure;BME280_temperature;BME280_humidity;BME280_pressure;Samples;Min_cycle;Max_cycle;Signal;HPM_P1;HPM_P2
2021/07/12 00:00:26;;;;;;;;;;;;;;;21.15;53.92;95586.66;1045843;28;1025;-80
2021/07/12 00:00:56;;;;;;;;;;;;;;;21.17;53.97;95592.44;1045649;28;1230;-81
2021/07/12 00:01:26;;;;;;;;;;;;;;;21.18;53.95;95594.03;1050314;28;1080;-77
2021/07/12 00:01:57;;;;;;;;;;;;;;;21.18;53.76;95591.41;1049449;28;1201;-78
2021/07/12 00:02:27;;;;;;;;;;;;;;;21.19;53.67;95590.31;1049482;28;1971;-78
2021/07/12 00:02:57;;;;;;;;;;;;;;;21.19;53.81;95588.47;1049525;28;1151;-77
2021/07/12 00:03:27;;;;;;;;;;;;;;;21.20;53.76;95590.06;1045142;28;1363;-78
2021/07/12 00:03:58;;;;;;;;;;;;;;;21.21;53.80;95588.19;1048301;28;2425;-76
2021/07/12 00:04:28;;;;;;;;;;;;;;;21.22;53.60;95593.19;1046778;28;2339;-77
2021/07/12 00:04:58;;;;;;;;;;;;;;;21.22;54.00;95587.91;1044061;28;1061;-78
2021/07/12 00:05:31;;;;;;;;;;;;;;;21.23;53.71;95589.47;1050200;28;1249;-79
2021/07/12 00:06:01;;;;;;;;;;;;;;;21.24;53.83;95593.69;1044708;28;1211;-78
2021/07/12 00:06:31;;;;;;;;;;;;;;;21.24;53.59;95585.00;1045354;28;1548;-77
2021/07/12 00:07:02;;;;;;;;;;;;;;;21.25;53.84;95586.56;1044767;28;2236;-78
2021/07/12 00:07:32;;;;;;;;;;;;;;;21.26;53.86;95588.13;1044079;28;2250;-79
2021/07/12 00:08:02;;;;;;;;;;;;;;;21.26;53.78;95573.13;1045218;28;1314;-78
2021/07/12 00:08:33;;;;;;;;;;;;;;;21.28;53.83;95580.72;1040730;28;1247;-80
2021/07/12 00:09:03;;;;;;;;;;;;;;;21.29;53.84;95584.94;1039560;28;2388;-80
2021/07/12 00:09:34;;;;;;;;;;;;;;;21.28;53.59;95586.00;1027990;28;2711;-80
2021/07/12 00:10:05;;;;;;;;;;;;;;;21.30;53.54;95589.94;1036506;28;1130;-79
2021/07/12 00:10:36;;;;;;;;;;;;;;;21.30;53.71;95581.22;1041652;28;792;-78
2021/07/12 00:11:06;;;;;;;;;;;;;;;21.29;53.73;95583.06;1044906;28;1366;-79
2021/07/12 00:11:36;;;;;;;;;;;;;;;21.30;53.72;95589.94;1045603;28;787;-79
2021/07/12 00:12:06;;;;;;;;;;;;;;;21.31;53.84;95580.19;1041377;28;1322;-79
2021/07/12 00:12:37;;;;;;;;;;;;;;;21.32;53.58;95582.53;1043559;28;1128;-78
2021/07/12 00:13:07;;;;;;;;;;;;;;;21.33;53.74;95583.31;1037401;28;1262;-79
2021/07/12 00:13:37;;;;;;;;;;;;;;;21.35;53.55;95586.47;1033727;28;1373;-79
2021/07/12 00:14:07;;;;;;;;;;;;;;;21.34;53.47;95579.59;1035465;28;1223;-79
2021/07/12 00:14:38;;;;;;;;;;;;;;;21.35;53.56;95583.81;1037281;28;1436;-81
2021/07/12 00:15:09;;;;;;;;;;;;;;;21.35;53.72;95575.91;1041716;28;815;-80
2021/07/12 00:15:39;;;;;;;;;;;;;;;21.36;53.46;95582.75;1037514;28;1301;-80
2021/07/12 00:16:09;;;;;;;;;;;;;;;21.36;53.65;95582.75;1041862;28;1901;-81
2021/07/12 00:16:39;;;;;;;;;;;;;;;21.36;53.69;95580.91;1046281;28;1112;-80
2021/07/12 00:17:10;;;;;;;;;;;;;;;21.37;53.58;95581.69;1041766;28;1220;-79
2021/07/12 00:17:40;;;;;;;;;;;;;;;21.38;53.54;95583.25;1050336;28;1139;-78
2021/07/12 00:18:10;;;;;;;;;;;;;;;21.38;53.60;95575.34;1050253;28;787;-79
2021/07/12 00:18:41;;;;;;;;;;;;;;;21.38;53.70;95576.13;1046052;28;1884;-80
2021/07/12 00:19:12;;;;;;;;;;;;;;;21.39;53.49;95576.91;1050010;28;1428;-81
2021/07/12 00:19:42;;;;;;;;;;;;;;;21.39;53.54;95582.94;1045658;28;1327;-79
2021/07/12 00:20:12;;;;;;;;;;;;;;;21.41;53.44;95580.06;1040967;28;1934;-80
2021/07/12 00:20:43;;;;;;;;;;;;;;;21.41;53.54;95580.06;1042895;28;1112;-79
2021/07/12 00:21:13;;;;;;;;;;;;;;;21.41;53.50;95575.53;1046584;28;981;-79
2021/07/12 00:21:44;;;;;;;;;;;;;;;21.42;53.37;95573.69;1050510;28;1020;-80
2021/07/12 00:22:14;;;;;;;;;;;;;;;21.42;53.48;95571.06;1050409;28;1326;-80
2021/07/12 00:22:44;;;;;;;;;;;;;;;21.42;53.11;95571.84;1049898;28;1898;-80
2021/07/12 00:23:15;;;;;;;;;;;;;;;21.43;53.08;95580.56;1050079;28;835;-80
2021/07/12 00:23:45;;;;;;;;;;;;;;;21.43;53.30;95578.69;1045789;28;1225;-80
2021/07/12 00:24:19;;;;;;;;;;;;;;;21.44;53.44;95574.19;1046219;28;970;-80
2021/07/12 00:24:50;;;;;;;;;;;;;;;21.44;53.25;95571.56;1046804;28;1205;-80
2021/07/12 00:25:20;;;;;;;;;;;;;;;21.43;53.27;95573.41;1045828;28;2276;-79
2021/07/12 00:25:51;;;;;;;;;;;;;;;21.44;53.18;95575.00;1050511;28;1268;-80
2021/07/12 00:26:21;;;;;;;;;;;;;;;21.44;53.43;95569.72;1049233;28;1351;-80
2021/07/12 00:26:51;;;;;;;;;;;;;;;21.44;53.11;95564.44;1042395;28;1299;-80
2021/07/12 00:27:22;;;;;;;;;;;;;;;21.45;53.17;95575.78;1042353;28;1360;-79
2021/07/12 00:27:52;;;;;;;;;;;;;;;21.45;53.13;95571.28;1033478;28;1902;-80
2021/07/12 00:28:22;;;;;;;;;;;;;;;21.47;53.44;95571.00;1036302;28;1336;-80
2021/07/12 00:28:52;;;;;;;;;;;;;;;21.48;53.36;95565.44;1039689;28;1731;-81
2021/07/12 00:29:23;;;;;;;;;;;;;;;21.47;53.08;95563.09;1046494;28;1300;-83
2021/07/12 00:29:56;;;;;;;;;;;;;;;21.48;53.31;95564.66;1049774;28;1446;-83
2021/07/12 00:30:26;;;;;;;;;;;;;;;21.47;53.16;95563.91;1045837;28;1053;-79
2021/07/12 00:30:56;;;;;;;;;;;;;;;21.48;53.22;95559.38;1046020;28;1227;-80
2021/07/12 00:31:27;;;;;;;;;;;;;;;21.47;53.29;95563.91;1041335;28;1230;-78
2021/07/12 00:31:57;;;;;;;;;;;;;;;21.48;53.24;95564.66;1041635;28;1175;-79
2021/07/12 00:32:27;;;;;;;;;;;;;;;21.49;53.30;95555.69;1045570;28;1025;-78
2021/07/12 00:32:57;;;;;;;;;;;;;;;21.49;53.17;95567.03;1049569;28;1047;-78
2021/07/12 00:33:28;;;;;;;;;;;;;;;21.49;53.16;95564.41;1049521;28;792;-78
2021/07/12 00:33:58;;;;;;;;;;;;;;;21.49;53.29;95564.41;1045527;28;1135;-79
2021/07/12 00:34:28;;;;;;;;;;;;;;;21.49;53.23;95559.13;1045077;28;729;-78
2021/07/12 00:34:58;;;;;;;;;;;;;;;21.49;53.16;95560.97;1040637;28;2270;-81
2021/07/12 00:35:29;;;;;;;;;;;;;;;21.49;53.09;95563.59;1043632;28;1206;-80
2021/07/12 00:36:00;;;;;;;;;;;;;;;21.49;53.16;95560.97;1049538;28;1174;-78
2021/07/12 00:36:30;;;;;;;;;;;;;;;21.50;53.28;95563.31;1045064;28;1286;-79
2021/07/12 00:37:00;;;;;;;;;;;;;;;21.50;53.27;95560.66;1048340;28;1911;-79
2021/07/12 00:37:31;;;;;;;;;;;;;;;21.50;52.95;95560.66;1049641;28;764;-79
2021/07/12 00:38:01;;;;;;;;;;;;;;;21.52;53.06;95560.38;1045058;28;1321;-78
2021/07/12 00:38:31;;;;;;;;;;;;;;;21.52;52.83;95560.38;1048841;28;1205;-79
2021/07/12 00:39:02;;;;;;;;;;;;;;;21.52;53.05;95568.28;1045292;28;1305;-79
2021/07/12 00:39:32;;;;;;;;;;;;;;;21.52;53.20;95560.38;1036989;28;1650;-78
2021/07/12 00:40:05;;;;;;;;;;;;;;;21.53;53.15;95564.59;1040638;28;2384;-79
2021/07/12 00:40:36;;;;;;;;;;;;;;;21.53;52.98;95562.75;1041763;28;1206;-78
2021/07/12 00:41:06;;;;;;;;;;;;;;;21.54;53.17;95568.78;1045535;28;1076;-79
2021/07/12 00:41:36;;;;;;;;;;;;;;;21.55;53.12;95565.09;1042382;28;995;-77
2021/07/12 00:42:07;;;;;;;;;;;;;;;21.56;53.31;95569.28;1037157;28;1126;-78
2021/07/12 00:42:37;;;;;;;;;;;;;;;21.57;53.16;95566.41;1036943;28;1910;-77
2021/07/12 00:43:07;;;;;;;;;;;;;;;21.58;53.27;95565.31;1040988;28;1143;-79
2021/07/12 00:43:38;;;;;;;;;;;;;;;21.59;53.38;95566.09;1044929;28;2285;-80
2021/07/12 00:44:08;;;;;;;;;;;;;;;21.59;53.45;95566.91;1041171;28;2188;-78
2021/07/12 00:44:38;;;;;;;;;;;;;;;21.60;53.21;95563.19;1045889;28;1253;-77
2021/07/12 00:45:12;;;;;;;;;;;;;;;21.60;53.20;95557.09;1044111;28;2723;-78
2021/07/12 00:45:43;;;;;;;;;;;;;;;21.61;53.27;95559.47;1044881;28;1936;-78
2021/07/12 00:46:13;;;;;;;;;;;;;;;21.61;53.13;95559.47;1049563;28;1021;-78
2021/07/12 00:46:43;;;;;;;;;;;;;;;21.62;53.42;95561.03;1049315;28;1154;-79
2021/07/12 00:47:14;;;;;;;;;;;;;;;21.61;53.20;95564.75;1049435;28;1250;-80
2021/07/12 00:47:44;;;;;;;;;;;;;;;21.60;53.13;95560.53;1045226;28;1123;-79
2021/07/12 00:48:15;;;;;;;;;;;;;;;21.60;53.03;95559.75;1044990;28;783;-79
2021/07/12 00:48:45;;;;;;;;;;;;;;;21.61;53.22;95556.06;1045417;28;1076;-79
2021/07/12 00:49:15;;;;;;;;;;;;;;;21.62;53.29;95560.25;1047579;28;2304;-79
2021/07/12 00:49:46;;;;;;;;;;;;;;;21.61;53.51;95556.06;1046272;28;1378;-79
2021/07/12 00:50:16;;;;;;;;;;;;;;;21.60;53.38;95557.91;1047924;28;2254;-78
2021/07/12 00:50:47;;;;;;;;;;;;;;;21.61;53.12;95551.56;1049330;28;1300;-78
2021/07/12 00:51:17;;;;;;;;;;;;;;;21.63;53.27;95554.72;1045411;28;1175;-79
2021/07/12 00:51:47;;;;;;;;;;;;;;;21.63;53.39;95551.28;1036934;28;1223;-78
2021/07/12 00:52:18;;;;;;;;;;;;;;;21.63;53.24;95553.91;1037174;28;1069;-78
2021/07/12 00:52:48;;;;;;;;;;;;;;;21.64;53.34;95555.47;1032830;28;1164;-79
2021/07/12 00:53:19;;;;;;;;;;;;;;;21.65;53.26;95554.41;1036257;28;1116;-78
2021/07/12 00:53:49;;;;;;;;;;;;;;;21.65;53.22;95557.84;1045830;28;1064;-78
2021/07/12 00:54:26;;;;;;;;;;;;;;;21.67;53.33;95554.91;1049346;28;2109;-81
2021/07/12 00:54:57;;;;;;;;;;;;;;;21.67;53.11;95547.00;1050883;28;1308;-79
2021/07/12 00:55:32;;;;;;;;;;;;;;;21.67;53.24;95552.28;1050174;28;2078;-79
2021/07/12 00:56:03;;;;;;;;;;;;;;;21.66;53.33;95553.34;1051213;28;1344;-81
2021/07/12 00:56:33;;;;;;;;;;;;;;;21.68;53.32;95553.84;1051741;28;1640;-79
2021/07/12 00:57:04;;;;;;;;;;;;;;;21.67;53.08;95552.28;1051626;28;1130;-80
2021/07/12 00:57:34;;;;;;;;;;;;;;;21.68;53.08;95548.56;1047882;28;1196;-79
2021/07/12 00:58:05;;;;;;;;;;;;;;;21.68;53.09;95551.19;1047191;28;1104;-81
2021/07/12 00:58:36;;;;;;;;;;;;;;;21.68;53.11;95551.97;1047401;28;1257;-77
2021/07/12 00:59:06;;;;;;;;;;;;;;;21.68;53.26;95551.19;1051348;28;1218;-79
2021/07/12 00:59:36;;;;;;;;;;;;;;;21.68;53.04;95548.56;1046981;28;1185;-80
2021/07/12 01:00:07;;;;;;;;;;;;;;;21.68;53.14;95551.19;1046143;28;2201;-79
2021/07/12 01:00:37;;;;;;;;;;;;;;;21.68;53.35;95544.06;1047650;28;2021;-79
2021/07/12 01:01:08;;;;;;;;;;;;;;;21.68;53.03;95543.28;1047808;28;1053;-79
2021/07/12 01:01:38;;;;;;;;;;;;;;;21.68;53.07;95538.78;1042984;28;1275;-78
2021/07/12 01:02:08;;;;;;;;;;;;;;;21.69;53.21;95545.66;1038067;28;1916;-78
2021/07/12 01:02:38;;;;;;;;;;;;;;;21.69;53.15;95540.38;1040643;28;1989;-78
2021/07/12 01:03:09;;;;;;;;;;;;;;;21.70;53.10;95543.81;1043908;28;1372;-79
2021/07/12 01:03:39;;;;;;;;;;;;;;;21.70;53.16;95541.16;1037175;28;1425;-79
2021/07/12 01:04:10;;;;;;;;;;;;;;;21.69;53.08;95540.38;1041347;28;1970;-79
2021/07/12 01:04:40;;;;;;;;;;;;;;;21.70;53.21;95535.91;1041491;28;1032;-78
2021/07/12 01:05:13;;;;;;;;;;;;;;;21.68;53.07;95544.06;1040010;28;2285;-79
2021/07/12 01:05:43;;;;;;;;;;;;;;;21.69;53.28;95544.84;1046679;28;1040;-78
2021/07/12 01:06:14;;;;;;;;;;;;;;;21.69;52.99;95534.31;1044147;28;1675;-78
2021/07/12 01:06:44;;;;;;;;;;;;;;;21.69;53.29;95536.94;1045628;28;1183;-78
2021/07/12 01:07:14;;;;;;;;;;;;;;;21.69;53.16;95535.09;1049625;28;971;-78
2021/07/12 01:07:45;;;;;;;;;;;;;;;21.69;52.94;95531.66;1049379;28;1104;-77
2021/07/12 01:08:15;;;;;;;;;;;;;;;21.71;53.21;95537.44;1048443;28;1418;-79
2021/07/12 01:08:45;;;;;;;;;;;;;;;21.70;53.01;95536.66;1044868;28;1302;-79
2021/07/12 01:09:15;;;;;;;;;;;;;;;21.69;53.14;95540.38;1041934;28;1303;-79
2021/07/12 01:09:46;;;;;;;;;;;;;;;21.69;53.06;95539.59;1034158;28;1367;-78
2021/07/12 01:10:17;;;;;;;;;;;;;;;21.68;53.10;95535.38;1036815;28;2647;-78
2021/07/12 01:11:06;;;;;;;;;;;;;;;21.67;53.01;95536.44;1037171;28;1543;-77
2021/07/12 01:11:38;;;;;;;;;;;;;;;21.65;52.90;95543.88;1033221;28;1304;-78
2021/07/12 01:12:22;;;;;;;;;;;;;;;21.65;52.86;95538.59;1029086;28;1200;-77
2021/07/12 01:13:11;;;;;;;;;;;;;;;21.67;52.90;95541.72;1037114;28;1314;-79
2021/07/12 01:14:07;;;;;;;;;;;;;;;21.66;52.98;95545.41;1037944;28;1219;-78
2021/07/12 01:14:51;;;;;;;;;;;;;;;21.65;53.01;95546.50;1042586;28;1313;-78
2021/07/12 01:15:22;;;;;;;;;;;;;;;21.64;53.02;95543.06;1047864;28;1839;-79
2021/07/12 01:15:52;;;;;;;;;;;;;;;21.63;53.14;95536.25;1041373;28;1204;-79
2021/07/12 01:16:37;;;;;;;;;;;;;;;21.64;52.96;95550.19;1041646;28;824;-79
2021/07/12 01:17:16;;;;;;;;;;;;;;;21.64;52.82;95539.66;1039290;28;1204;-78
2021/07/12 01:17:46;;;;;;;;;;;;;;;21.64;53.05;95543.06;1033367;28;1328;-78
2021/07/12 01:18:33;;;;;;;;;;;;;;;21.64;53.06;95542.28;1036389;28;1301;-78
2021/07/12 01:19:17;;;;;;;;;;;;;;;21.64;53.20;95537.78;1036357;28;1366;-79
2021/07/12 01:19:52;;;;;;;;;;;;;;;21.65;53.02;95538.59;1041064;28;1288;-80
2021/07/12 01:20:34;;;;;;;;;;;;;;;21.64;52.89;95537.00;1036846;28;1999;-78
2021/07/12 01:21:24;;;;;;;;;;;;;;;21.65;52.84;95541.22;1041440;28;1215;-79
2021/07/12 01:22:13;;;;;;;;;;;;;;;21.63;53.08;95536.25;1044978;28;1324;-79
2021/07/12 01:22:56;;;;;;;;;;;;;;;21.63;52.97;95536.25;1049516;28;1968;-79
2021/07/12 01:23:26;;;;;;;;;;;;;;;21.63;53.10;95530.19;1049058;28;1448;-78
2021/07/12 01:24:08;;;;;;;;;;;;;;;21.64;52.83;95539.66;1049598;28;1067;-78
2021/07/12 01:24:57;;;;;;;;;;;;;;;21.64;53.02;95529.09;1045411;28;1329;-78
2021/07/12 01:25:36;;;;;;;;;;;;;;;21.64;52.69;95535.16;1046473;28;2000;-79
2021/07/12 01:26:21;;;;;;;;;;;;;;;21.63;52.74;95530.97;1041451;28;1097;-80
2021/07/12 01:27:01;;;;;;;;;;;;;;;21.63;53.00;95533.59;1037067;28;1419;-78
2021/07/12 01:27:40;;;;;;;;;;;;;;;21.63;52.77;95530.97;1037289;28;1584;-79
2021/07/12 01:28:29;;;;;;;;;;;;;;;21.62;52.80;95539.16;1041087;28;1191;-79
2021/07/12 01:29:07;;;;;;;;;;;;;;;21.60;52.85;95536.00;1045325;28;1171;-80
2021/07/12 01:30:01;;;;;;;;;;;;;;;21.60;52.97;95539.44;1049520;28;1304;-78
2021/07/12 01:30:34;;;;;;;;;;;;;;;21.61;53.03;95534.94;1048545;28;2114;-77
2021/07/12 01:31:29;;;;;;;;;;;;;;;21.61;52.87;95542.88;1049502;28;1286;-81
2021/07/12 01:31:59;;;;;;;;;;;;;;;21.60;52.71;95536.78;1049634;28;1017;-79
2021/07/12 01:32:48;;;;;;;;;;;;;;;21.60;52.85;95542.06;1045388;28;1236;-80
2021/07/12 01:33:22;;;;;;;;;;;;;;;21.60;53.01;95541.28;1044944;28;2035;-79
2021/07/12 01:34:26;;;;;;;;;;;;;;;21.60;52.98;95536.78;1044388;28;1143;-78
2021/07/12 01:34:57;;;;;;;;;;;;;;;21.62;52.96;95539.94;1024524;28;1331;-78
2021/07/12 01:35:39;;;;;;;;;;;;;;;21.63;52.87;95535.44;1024770;28;2929;-79
2021/07/12 01:36:41;;;;;;;;;;;;;;;21.63;52.90;95535.44;1038700;28;983;-81
2021/07/12 01:37:30;;;;;;;;;;;;;;;21.65;52.86;95533.31;1036770;28;1091;-78
2021/07/12 01:38:21;;;;;;;;;;;;;;;21.66;53.15;95532.22;1036539;28;1215;-80
2021/07/12 01:39:03;;;;;;;;;;;;;;;21.66;52.55;95532.22;1040763;28;1500;-79
2021/07/12 01:39:34;;;;;;;;;;;;;;;21.66;53.17;95526.94;1040991;28;1198;-79
2021/07/12 01:40:07;;;;;;;;;;;;;;;21.66;53.15;95533.03;1036775;28;1507;-78
2021/07/12 01:40:39;;;;;;;;;;;;;;;21.65;53.03;95535.94;1039909;28;2157;-78
2021/07/12 01:41:17;;;;;;;;;;;;;;;21.65;52.94;95530.69;1036271;28;1992;-78
2021/07/12 01:42:16;;;;;;;;;;;;;;;21.65;52.74;95534.09;1034138;28;1319;-77
2021/07/12 01:43:07;;;;;;;;;;;;;;;21.63;53.02;95523.06;1032436;28;1974;-77
2021/07/12 01:43:38;;;;;;;;;;;;;;;21.64;52.92;95526.44;1046108;28;1100;-78
2021/07/12 01:44:14;;;;;;;;;;;;;;;21.63;52.95;95520.41;1038573;28;1342;-77
2021/07/12 01:44:47;;;;;;;;;;;;;;;21.65;52.68;95526.19;1040488;28;2165;-78
2021/07/12 01:45:18;;;;;;;;;;;;;;;21.65;52.77;95522.75;1036170;28;2178;-78
2021/07/12 01:46:07;;;;;;;;;;;;;;;21.64;53.02;95521.19;1035155;28;1034;-78
2021/07/12 01:46:48;;;;;;;;;;;;;;;21.64;53.07;95521.97;1036921;28;1236;-77
2021/07/12 01:47:20;;;;;;;;;;;;;;;21.63;52.95;95522.25;1040537;28;1591;-79
2021/07/12 01:48:08;;;;;;;;;;;;;;;21.65;53.05;95517.47;1040565;28;1104;-78
2021/07/12 01:48:41;;;;;;;;;;;;;;;21.66;52.96;95519.03;1040755;28;1156;-80
2021/07/12 01:49:20;;;;;;;;;;;;;;;21.66;52.67;95519.03;1035814;28;1327;-78
2021/07/12 01:50:02;;;;;;;;;;;;;;;21.67;52.83;95520.63;1039733;28;1930;-78
2021/07/12 01:50:43;;;;;;;;;;;;;;;21.67;52.74;95516.13;1040188;28;2167;-78
2021/07/12 01:51:13;;;;;;;;;;;;;;;21.68;52.84;95520.31;1036519;28;1833;-78
2021/07/12 01:51:45;;;;;;;;;;;;;;;21.70;52.63;95514.78;1028724;28;1256;-77
2021/07/12 01:52:34;;;;;;;;;;;;;;;21.69;52.73;95516.63;1032975;28;851;-78
2021/07/12 01:53:14;;;;;;;;;;;;;;;21.69;52.70;95516.63;1035539;28;958;-79
2021/07/12 01:53:54;;;;;;;;;;;;;;;21.72;52.79;95510.00;1041086;28;1123;-77
2021/07/12 01:54:32;;;;;;;;;;;;;;;21.73;52.91;95509.72;1041070;28;780;-79
2021/07/12 01:55:18;;;;;;;;;;;;;;;21.73;52.87;95514.19;1041060;28;1148;-78
2021/07/12 01:56:21;;;;;;;;;;;;;;;21.73;53.03;95515.00;1044781;28;815;-77
2021/07/12 01:57:05;;;;;;;;;;;;;;;21.75;53.01;95512.06;1034431;28;1195;-78
2021/07/12 01:57:40;;;;;;;;;;;;;;;21.74;52.91;95506.00;1036768;28;1315;-78
2021/07/12 01:58:45;;;;;;;;;;;;;;;21.74;53.03;95505.22;1044422;28;983;-78
2021/07/12 01:59:23;;;;;;;;;;;;;;;21.71;52.79;95505.78;1036766;28;1267;-78
2021/07/12 01:59:58;;;;;;;;;;;;;;;21.71;53.03;95495.25;1028791;28;1368;-78
2021/07/12 02:00:28;;;;;;;;;;;;;;;21.71;53.01;95500.50;1032216;28;1188;-77
2021/07/12 02:00:59;;;;;;;;;;;;;;;21.72;52.96;95499.47;1032870;28;1145;-79
2021/07/12 02:01:29;;;;;;;;;;;;;;;21.71;53.06;95493.38;1036728;28;1664;-77
2021/07/12 02:01:59;;;;;;;;;;;;;;;21.72;52.87;95499.47;1031033;28;1304;-78
2021/07/12 02:02:30;;;;;;;;;;;;;;;21.72;53.19;95496.81;1032817;28;1902;-78
2021/07/12 02:03:00;;;;;;;;;;;;;;;21.71;53.04;95496.03;1031789;28;1190;-78
2021/07/12 02:03:30;;;;;;;;;;;;;;;21.74;53.00;95494.69;1036966;28;1155;-77
2021/07/12 02:04:01;;;;;;;;;;;;;;;21.73;53.24;95495.72;1036619;28;1374;-78
2021/07/12 02:04:32;;;;;;;;;;;;;;;21.74;52.90;95492.03;1032878;28;1272;-78
2021/07/12 02:05:04;;;;;;;;;;;;;;;21.74;52.90;95494.69;1037058;28;1037;-78
2021/07/12 02:05:35;;;;;;;;;;;;;;;21.74;52.96;95497.31;1034935;28;2179;-78
2021/07/12 02:06:07;;;;;;;;;;;;;;;21.74;52.84;95489.41;1037415;28;955;-78
2021/07/12 02:06:37;;;;;;;;;;;;;;;21.73;53.05;95496.53;1037079;28;1082;-78
2021/07/12 02:07:10;;;;;;;;;;;;;;;21.73;53.06;95495.72;1041707;28;1014;-78
2021/07/12 02:07:40;;;;;;;;;;;;;;;21.73;53.06;95482.53;1041837;28;1159;-79
2021/07/12 02:08:12;;;;;;;;;;;;;;;21.74;53.18;95495.44;1043971;28;2122;-76
2021/07/12 02:08:46;;;;;;;;;;;;;;;21.74;52.91;95497.31;1041709;28;1171;-78
2021/07/12 02:09:16;;;;;;;;;;;;;;;21.75;53.17;95490.94;1041191;28;1208;-77
2021/07/12 02:09:46;;;;;;;;;;;;;;;21.76;53.44;95481.97;1040533;28;1608;-78
2021/07/12 02:10:17;;;;;;;;;;;;;;;21.76;53.17;95495.19;1041467;28;725;-79
2021/07/12 02:10:49;;;;;;;;;;;;;;;21.75;53.31;95488.31;1036141;28;2413;-78
2021/07/12 02:11:19;;;;;;;;;;;;;;;21.76;53.36;95481.97;1033529;28;1226;-79
2021/07/12 02:11:49;;;;;;;;;;;;;;;21.77;53.14;95488.81;1033034;28;1144;-79
2021/07/12 02:12:19;;;;;;;;;;;;;;;21.77;52.96;95486.19;1026102;28;1505;-82
2021/07/12 02:12:50;;;;;;;;;;;;;;;21.76;53.07;95484.63;1026923;28;1070;-79
2021/07/12 02:13:21;;;;;;;;;;;;;;;21.78;52.87;95483.25;1033075;28;1425;-79
2021/07/12 02:13:51;;;;;;;;;;;;;;;21.78;52.94;95483.25;1037511;28;1152;-79
2021/07/12 02:14:22;;;;;;;;;;;;;;;21.78;53.01;95479.84;1041425;28;1163;-81
2021/07/12 02:14:52;;;;;;;;;;;;;;;21.77;53.25;95481.69;1040981;28;1025;-81
2021/07/12 02:15:22;;;;;;;;;;;;;;;21.77;53.28;95478.25;1037256;28;1279;-77
2021/07/12 02:15:54;;;;;;;;;;;;;;;21.76;53.36;95481.97;1035142;28;1018;-79
2021/07/12 02:16:24;;;;;;;;;;;;;;;21.75;53.09;95485.69;1037624;28;950;-80
2021/07/12 02:16:54;;;;;;;;;;;;;;;21.75;53.18;95480.41;1037582;28;476;-79
2021/07/12 02:17:25;;;;;;;;;;;;;;;21.75;53.29;95478.56;1041617;28;958;-79
2021/07/12 02:17:55;;;;;;;;;;;;;;;21.74;53.08;95479.59;1043976;28;2039;-78
2021/07/12 02:18:26;;;;;;;;;;;;;;;21.75;53.25;95477.75;1044366;28;1774;-79
2021/07/12 02:18:56;;;;;;;;;;;;;;;21.76;53.10;95476.72;1044648;28;2568;-79
2021/07/12 02:19:27;;;;;;;;;;;;;;;21.76;52.94;95481.97;1041242;28;744;-78
2021/07/12 02:19:58;;;;;;;;;;;;;;;21.75;53.23;95473.28;1036827;28;1308;-78
2021/07/12 02:20:28;;;;;;;;;;;;;;;21.75;53.25;95475.91;1036725;28;2798;-81
2021/07/12 02:20:58;;;;;;;;;;;;;;;21.74;53.28;95471.69;1033022;28;1192;-79
2021/07/12 02:21:32;;;;;;;;;;;;;;;21.75;52.96;95475.91;1033123;28;1034;-79
2021/07/12 02:22:02;;;;;;;;;;;;;;;21.75;53.10;95475.91;1034022;28;1133;-79
2021/07/12 02:22:33;;;;;;;;;;;;;;;21.74;53.00;95474.34;1037920;28;1971;-79
2021/07/12 02:23:04;;;;;;;;;;;;;;;21.73;52.82;95480.69;1037325;28;1219;-78
2021/07/12 02:23:34;;;;;;;;;;;;;;;21.72;52.98;95470.44;1041197;28;1212;-78
2021/07/12 02:24:05;;;;;;;;;;;;;;;21.74;52.85;95476.97;1033124;28;1224;-81
2021/07/12 02:24:35;;;;;;;;;;;;;;;21.74;53.12;95474.34;1033087;28;1010;-79
2021/07/12 02:25:06;;;;;;;;;;;;;;;21.74;53.14;95476.22;1037068;28;1148;-79
2021/07/12 02:25:37;;;;;;;;;;;;;;;21.73;52.95;95475.41;1028626;28;1236;-78
2021/07/12 02:26:10;;;;;;;;;;;;;;;21.75;52.73;95477.75;1036791;28;1078;-78
2021/07/12 02:26:40;;;;;;;;;;;;;;;21.75;53.08;95469.84;1037237;28;1269;-80
2021/07/12 02:27:11;;;;;;;;;;;;;;;21.75;52.92;95477.75;1032693;28;1676;-77
2021/07/12 02:27:42;;;;;;;;;;;;;;;21.75;52.98;95475.91;1037614;28;1235;-77
2021/07/12 02:28:13;;;;;;;;;;;;;;;21.76;53.10;95476.72;1040858;28;1217;-79
2021/07/12 02:28:44;;;;;;;;;;;;;;;21.75;53.15;95473.28;1045139;28;1417;-79
2021/07/12 02:29:16;;;;;;;;;;;;;;;21.76;53.23;95472.19;1044970;28;1333;-78
2021/07/12 02:29:46;;;;;;;;;;;;;;;21.76;53.15;95466.91;1040308;28;1268;-78
2021/07/12 02:30:17;;;;;;;;;;;;;;;21.76;52.93;95471.44;1033434;28;1097;-78
2021/07/12 02:30:47;;;;;;;;;;;;;;;21.77;53.08;95473.78;1036983;28;2195;-79
2021/07/12 02:31:18;;;;;;;;;;;;;;;21.77;52.93;95467.72;1040506;28;2086;-77
2021/07/12 02:31:48;;;;;;;;;;;;;;;21.76;53.12;95461.63;1041061;28;1234;-77
2021/07/12 02:32:18;;;;;;;;;;;;;;;21.76;53.18;95466.91;1041034;28;1180;-78
2021/07/12 02:32:49;;;;;;;;;;;;;;;21.77;53.11;95468.50;1040960;28;1140;-78
2021/07/12 02:33:19;;;;;;;;;;;;;;;21.78;53.00;95464.00;1040840;28;1160;-80
2021/07/12 02:33:49;;;;;;;;;;;;;;;21.79;53.09;95465.56;1045037;28;1033;-77
2021/07/12 02:34:20;;;;;;;;;;;;;;;21.79;53.01;95470.84;1040897;28;1096;-78
2021/07/12 02:34:50;;;;;;;;;;;;;;;21.78;53.25;95462.13;1044826;28;1095;-77
2021/07/12 02:35:21;;;;;;;;;;;;;;;21.77;53.01;95457.94;1041011;28;1327;-77
2021/07/12 02:35:53;;;;;;;;;;;;;;;21.77;52.97;95459.78;1039556;28;2133;-79
2021/07/12 02:36:23;;;;;;;;;;;;;;;21.76;53.09;95460.88;1037272;28;741;-77
2021/07/12 02:36:53;;;;;;;;;;;;;;;21.75;52.98;95461.94;1036866;28;1590;-78
2021/07/12 02:37:23;;;;;;;;;;;;;;;21.76;52.95;95458.25;1036846;28;1252;-77
2021/07/12 02:37:54;;;;;;;;;;;;;;;21.75;53.04;95457.44;1036693;28;1203;-78
2021/07/12 02:38:24;;;;;;;;;;;;;;;21.76;52.83;95455.59;1036341;28;1089;-78
2021/07/12 02:38:55;;;;;;;;;;;;;;;21.77;53.22;95457.16;1032673;28;1374;-78
2021/07/12 02:39:25;;;;;;;;;;;;;;;21.78;52.91;95450.81;1028976;28;784;-80
2021/07/12 02:39:56;;;;;;;;;;;;;;;21.77;52.97;95454.50;1032983;28;1392;-79
2021/07/12 02:40:26;;;;;;;;;;;;;;;21.77;52.73;95454.50;1037160;28;900;-78
2021/07/12 02:40:56;;;;;;;;;;;;;;;21.78;52.63;95454.22;1040541;28;2208;-78
2021/07/12 02:41:27;;;;;;;;;;;;;;;21.77;52.74;95452.66;1037096;28;898;-78
2021/07/12 02:41:57;;;;;;;;;;;;;;;21.78;52.86;95459.50;1037026;28;1081;-78
2021/07/12 02:42:28;;;;;;;;;;;;;;;21.78;52.95;95456.09;1037024;28;1375;-80
2021/07/12 02:42:58;;;;;;;;;;;;;;;21.78;53.17;95453.47;1028530;28;1910;-78
2021/07/12 02:43:28;;;;;;;;;;;;;;;21.77;53.04;95452.66;1032882;28;1121;-79
2021/07/12 02:43:59;;;;;;;;;;;;;;;21.78;53.09;95459.50;1032951;28;1022;-78
2021/07/12 02:44:29;;;;;;;;;;;;;;;21.76;52.96;95459.00;1040968;28;1009;-78
2021/07/12 02:44:59;;;;;;;;;;;;;;;21.76;52.87;95460.88;1040855;28;1943;-78
2021/07/12 02:45:30;;;;;;;;;;;;;;;21.76;52.89;95458.25;1041458;28;1905;-77
2021/07/12 02:46:00;;;;;;;;;;;;;;;21.75;53.05;95462.72;1039651;28;1964;-78
2021/07/12 02:46:31;;;;;;;;;;;;;;;21.77;52.70;95457.16;1032890;28;1232;-79
2021/07/12 02:47:01;;;;;;;;;;;;;;;21.76;52.94;95460.88;1032625;28;1303;-79
2021/07/12 02:47:33;;;;;;;;;;;;;;;21.77;52.64;95457.16;1033178;28;891;-79
2021/07/12 02:48:03;;;;;;;;;;;;;;;21.78;52.94;95462.13;1029060;28;1308;-76
2021/07/12 02:48:33;;;;;;;;;;;;;;;21.80;52.87;95459.22;1033298;28;844;-79
2021/07/12 02:49:04;;;;;;;;;;;;;;;21.79;52.83;95460.28;1037009;28;1030;-78
2021/07/12 02:49:34;;;;;;;;;;;;;;;21.79;52.92;95468.19;1032895;28;763;-79
2021/07/12 02:50:05;;;;;;;;;;;;;;;21.78;53.18;95451.56;1036827;28;1475;-78
2021/07/12 02:50:35;;;;;;;;;;;;;;;21.78;52.91;95459.50;1028862;28;814;-78
2021/07/12 02:51:06;;;;;;;;;;;;;;;21.77;52.87;95457.16;1032728;28;988;-78
2021/07/12 02:51:56;;;;;;;;;;;;;;;21.76;52.89;95460.88;1033034;28;1022;-78
2021/07/12 02:52:28;;;;;;;;;;;;;;;21.76;52.89;95455.59;1037936;28;1206;-79
2021/07/12 02:53:03;;;;;;;;;;;;;;;21.77;52.78;95457.94;1039917;28;1092;-78
2021/07/12 02:53:34;;;;;;;;;;;;;;;21.78;52.85;95456.09;1044132;28;1418;-77
2021/07/12 02:54:05;;;;;;;;;;;;;;;21.78;52.72;95458.72;1041750;28;1725;-78
2021/07/12 02:54:39;;;;;;;;;;;;;;;21.78;52.52;95454.22;1037027;28;1418;-79
2021/07/12 02:55:09;;;;;;;;;;;;;;;21.78;52.96;95454.22;1025249;28;1127;-78
2021/07/12 02:55:40;;;;;;;;;;;;;;;21.77;52.54;95451.88;1029596;28;2199;-78